sensor_id;sensor_type;location;lat;lon;timestamp;P1;durP1;ratioP1;P2;durP2;ratioP2
19030;SDS011;9648;51.130;13.978;2023-08-01T00:00:28;6.80;;;2.70;;
19030;SDS011;9648;51.130;13.978;2023-08-01T00:02:55;7.80;;;3.40;;
19030;SDS011;9648;51.130;13.978;2023-08-01T00:05:22;5.72;;;3.00;;
19030;SDS011;9648;51.130;13.978;2023-08-01T00:07:49;6.13;;;2.63;;
19030;SDS011;9648;51.130;13.978;2023-08-01T00:10:17;7.95;;;2.95;;
19030;SDS011;9648;51.130;13.978;2023-08-01T00:12:44;5.43;;;2.72;;
19030;SDS011;9648;51.130;13.978;2023-08-01T00:15:11;6.20;;;2.70;;
19030;SDS011;9648;51.130;13.978;2023-08-01T00:17:38;5.82;;;2.80;;
19030;SDS011;9648;51.130;13.978;2023-08-01T00:20:06;7.72;;;3.28;;
19030;SDS011;9648;51.130;13.978;2023-08-01T00:22:33;6.03;;;3.13;;
19030;SDS011;9648;51.130;13.978;2023-08-01T00:25:00;6.13;;;3.00;;
19030;SDS011;9648;51.130;13.978;2023-08-01T00:27:28;6.73;;;3.23;;
19030;SDS011;9648;51.130;13.978;2023-08-01T00:29:57;6.25;;;3.38;;
19030;SDS011;9648;51.130;13.978;2023-08-01T00:32:24;7.67;;;3.07;;
19030;SDS011;9648;51.130;13.978;2023-08-01T00:34:50;4.90;;;2.90;;
19030;SDS011;9648;51.130;13.978;2023-08-01T00:37:17;5.07;;;3.10;;
19030;SDS011;9648;51.130;13.978;2023-08-01T00:39:44;5.15;;;3.13;;
19030;SDS011;9648;51.130;13.978;2023-08-01T00:42:11;4.70;;;3.10;;
19030;SDS011;9648;51.130;13.978;2023-08-01T00:44:39;5.90;;;3.28;;
19030;SDS011;9648;51.130;13.978;2023-08-01T00:47:06;7.10;;;3.53;;
19030;SDS011;9648;51.130;13.978;2023-08-01T00:49:34;6.63;;;3.25;;
19030;SDS011;9648;51.130;13.978;2023-08-01T00:52:01;6.05;;;3.00;;
19030;SDS011;9648;51.130;13.978;2023-08-01T00:54:28;6.03;;;3.45;;
19030;SDS011;9648;51.130;13.978;2023-08-01T00:57:01;7.00;;;3.53;;
19030;SDS011;9648;51.130;13.978;2023-08-01T00:59:28;7.18;;;3.25;;
19030;SDS011;9648;51.130;13.978;2023-08-01T01:01:56;7.40;;;3.13;;
19030;SDS011;9648;51.130;13.978;2023-08-01T01:04:23;5.50;;;3.00;;
19030;SDS011;9648;51.130;13.978;2023-08-01T01:06:51;5.80;;;3.10;;
19030;SDS011;9648;51.130;13.978;2023-08-01T01:09:22;4.38;;;2.72;;
19030;SDS011;9648;51.130;13.978;2023-08-01T01:11:48;6.07;;;3.10;;
19030;SDS011;9648;51.130;13.978;2023-08-01T01:14:15;6.07;;;3.28;;
19030;SDS011;9648;51.130;13.978;2023-08-01T01:16:42;6.60;;;3.20;;
19030;SDS011;9648;51.130;13.978;2023-08-01T01:19:10;5.53;;;3.23;;
19030;SDS011;9648;51.130;13.978;2023-08-01T01:21:39;5.90;;;3.50;;
19030;SDS011;9648;51.130;13.978;2023-08-01T01:24:08;11.00;;;3.77;;
19030;SDS011;9648;51.130;13.978;2023-08-01T01:26:36;6.75;;;3.60;;
19030;SDS011;9648;51.130;13.978;2023-08-01T01:29:04;6.43;;;3.25;;
19030;SDS011;9648;51.130;13.978;2023-08-01T01:31:33;7.30;;;3.63;;
19030;SDS011;9648;51.130;13.978;2023-08-01T01:34:03;6.60;;;3.57;;
19030;SDS011;9648;51.130;13.978;2023-08-01T01:36:29;6.20;;;3.40;;
19030;SDS011;9648;51.130;13.978;2023-08-01T01:38:58;6.15;;;3.60;;
19030;SDS011;9648;51.130;13.978;2023-08-01T01:41:25;6.57;;;3.87;;
19030;SDS011;9648;51.130;13.978;2023-08-01T01:43:51;6.70;;;3.38;;
19030;SDS011;9648;51.130;13.978;2023-08-01T01:46:18;8.13;;;3.92;;
19030;SDS011;9648;51.130;13.978;2023-08-01T01:48:45;7.13;;;3.90;;
19030;SDS011;9648;51.130;13.978;2023-08-01T01:51:12;10.48;;;4.63;;
19030;SDS011;9648;51.130;13.978;2023-08-01T01:53:39;6.50;;;3.70;;
19030;SDS011;9648;51.130;13.978;2023-08-01T01:56:07;6.70;;;3.75;;
19030;SDS011;9648;51.130;13.978;2023-08-01T01:58:35;8.95;;;4.25;;
19030;SDS011;9648;51.130;13.978;2023-08-01T02:01:02;7.03;;;3.85;;
19030;SDS011;9648;51.130;13.978;2023-08-01T02:03:29;6.72;;;3.90;;
19030;SDS011;9648;51.130;13.978;2023-08-01T02:05:55;7.90;;;3.80;;
19030;SDS011;9648;51.130;13.978;2023-08-01T02:08:22;7.00;;;4.22;;
19030;SDS011;9648;51.130;13.978;2023-08-01T02:10:49;7.28;;;3.90;;
19030;SDS011;9648;51.130;13.978;2023-08-01T02:13:17;7.80;;;3.80;;
19030;SDS011;9648;51.130;13.978;2023-08-01T02:15:44;6.73;;;3.20;;
19030;SDS011;9648;51.130;13.978;2023-08-01T02:18:11;5.90;;;3.50;;
19030;SDS011;9648;51.130;13.978;2023-08-01T02:20:38;6.50;;;3.30;;
19030;SDS011;9648;51.130;13.978;2023-08-01T02:23:04;6.45;;;3.20;;
19030;SDS011;9648;51.130;13.978;2023-08-01T02:25:31;6.63;;;3.83;;
19030;SDS011;9648;51.130;13.978;2023-08-01T02:27:58;6.78;;;3.35;;
19030;SDS011;9648;51.130;13.978;2023-08-01T02:30:26;5.45;;;2.90;;
19030;SDS011;9648;51.130;13.978;2023-08-01T02:32:54;6.63;;;3.40;;
19030;SDS011;9648;51.130;13.978;2023-08-01T02:35:21;4.80;;;3.30;;
19030;SDS011;9648;51.130;13.978;2023-08-01T02:37:47;7.07;;;3.08;;
19030;SDS011;9648;51.130;13.978;2023-08-01T02:40:14;6.70;;;3.37;;
19030;SDS011;9648;51.130;13.978;2023-08-01T02:42:41;7.75;;;3.28;;
19030;SDS011;9648;51.130;13.978;2023-08-01T02:45:08;4.93;;;3.03;;
19030;SDS011;9648;51.130;13.978;2023-08-01T02:47:36;5.63;;;3.20;;
19030;SDS011;9648;51.130;13.978;2023-08-01T02:50:03;5.10;;;3.03;;
19030;SDS011;9648;51.130;13.978;2023-08-01T02:52:31;5.97;;;3.28;;
19030;SDS011;9648;51.130;13.978;2023-08-01T02:54:58;6.83;;;3.43;;
19030;SDS011;9648;51.130;13.978;2023-08-01T02:57:25;5.38;;;3.15;;
19030;SDS011;9648;51.130;13.978;2023-08-01T02:59:51;5.83;;;3.10;;
19030;SDS011;9648;51.130;13.978;2023-08-01T03:02:19;4.32;;;3.20;;
19030;SDS011;9648;51.130;13.978;2023-08-01T03:04:47;6.60;;;3.30;;
19030;SDS011;9648;51.130;13.978;2023-08-01T03:07:13;4.93;;;3.20;;
19030;SDS011;9648;51.130;13.978;2023-08-01T03:09:40;6.47;;;3.60;;
19030;SDS011;9648;51.130;13.978;2023-08-01T03:12:08;6.10;;;3.28;;
19030;SDS011;9648;51.130;13.978;2023-08-01T03:14:34;4.80;;;3.20;;
19030;SDS011;9648;51.130;13.978;2023-08-01T03:17:01;5.00;;;3.22;;
19030;SDS011;9648;51.130;13.978;2023-08-01T03:19:28;6.03;;;3.50;;
19030;SDS011;9648;51.130;13.978;2023-08-01T03:21:56;5.88;;;3.10;;
19030;SDS011;9648;51.130;13.978;2023-08-01T03:24:23;5.72;;;3.42;;
19030;SDS011;9648;51.130;13.978;2023-08-01T03:26:50;5.43;;;3.23;;
19030;SDS011;9648;51.130;13.978;2023-08-01T03:29:17;5.60;;;3.20;;
19030;SDS011;9648;51.130;13.978;2023-08-01T03:31:43;4.57;;;3.15;;
19030;SDS011;9648;51.130;13.978;2023-08-01T03:34:10;6.63;;;3.33;;
19030;SDS011;9648;51.130;13.978;2023-08-01T03:36:37;5.75;;;2.97;;
19030;SDS011;9648;51.130;13.978;2023-08-01T03:39:05;5.18;;;2.97;;
19030;SDS011;9648;51.130;13.978;2023-08-01T03:41:35;5.65;;;3.40;;
19030;SDS011;9648;51.130;13.978;2023-08-01T03:44:02;7.15;;;3.67;;
19030;SDS011;9648;51.130;13.978;2023-08-01T03:46:28;6.88;;;3.72;;
19030;SDS011;9648;51.130;13.978;2023-08-01T03:48:55;6.53;;;3.88;;
19030;SDS011;9648;51.130;13.978;2023-08-01T03:51:22;6.50;;;3.85;;
19030;SDS011;9648;51.130;13.978;2023-08-01T03:53:49;6.75;;;4.40;;
19030;SDS011;9648;51.130;13.978;2023-08-01T03:56:17;6.70;;;4.45;;
19030;SDS011;9648;51.130;13.978;2023-08-01T03:58:44;7.28;;;4.85;;
19030;SDS011;9648;51.130;13.978;2023-08-01T04:01:11;8.13;;;5.40;;
19030;SDS011;9648;51.130;13.978;2023-08-01T04:03:38;7.83;;;5.07;;
19030;SDS011;9648;51.130;13.978;2023-08-01T04:06:04;8.13;;;5.55;;
19030;SDS011;9648;51.130;13.978;2023-08-01T04:08:31;7.90;;;5.20;;
19030;SDS011;9648;51.130;13.978;2023-08-01T04:10:58;8.90;;;5.15;;
19030;SDS011;9648;51.130;13.978;2023-08-01T04:13:26;7.53;;;4.97;;
19030;SDS011;9648;51.130;13.978;2023-08-01T04:15:53;8.98;;;5.55;;
19030;SDS011;9648;51.130;13.978;2023-08-01T04:18:20;6.88;;;4.93;;
19030;SDS011;9648;51.130;13.978;2023-08-01T04:20:47;6.65;;;4.63;;
19030;SDS011;9648;51.130;13.978;2023-08-01T04:23:14;8.18;;;4.95;;
19030;SDS011;9648;51.130;13.978;2023-08-01T04:25:41;9.95;;;5.55;;
19030;SDS011;9648;51.130;13.978;2023-08-01T04:28:08;8.77;;;5.35;;
19030;SDS011;9648;51.130;13.978;2023-08-01T04:30:36;6.70;;;5.05;;
19030;SDS011;9648;51.130;13.978;2023-08-01T04:33:04;8.82;;;5.88;;
19030;SDS011;9648;51.130;13.978;2023-08-01T04:35:31;7.85;;;5.10;;
19030;SDS011;9648;51.130;13.978;2023-08-01T04:37:57;7.80;;;5.10;;
19030;SDS011;9648;51.130;13.978;2023-08-01T04:40:24;6.90;;;5.10;;
19030;SDS011;9648;51.130;13.978;2023-08-01T04:42:51;7.18;;;5.10;;
19030;SDS011;9648;51.130;13.978;2023-08-01T04:45:18;7.72;;;5.22;;
19030;SDS011;9648;51.130;13.978;2023-08-01T04:47:47;8.68;;;5.55;;
19030;SDS011;9648;51.130;13.978;2023-08-01T04:50:13;8.20;;;5.82;;
19030;SDS011;9648;51.130;13.978;2023-08-01T04:52:40;9.40;;;6.25;;
19030;SDS011;9648;51.130;13.978;2023-08-01T04:55:07;6.88;;;5.55;;
19030;SDS011;9648;51.130;13.978;2023-08-01T04:57:34;9.83;;;6.47;;
19030;SDS011;9648;51.130;13.978;2023-08-01T05:00:01;6.95;;;5.60;;
19030;SDS011;9648;51.130;13.978;2023-08-01T05:02:28;8.20;;;5.65;;
19030;SDS011;9648;51.130;13.978;2023-08-01T05:04:56;7.47;;;5.68;;
19030;SDS011;9648;51.130;13.978;2023-08-01T05:07:23;7.53;;;5.72;;
19030;SDS011;9648;51.130;13.978;2023-08-01T05:09:50;7.90;;;6.00;;
19030;SDS011;9648;51.130;13.978;2023-08-01T05:12:16;8.02;;;5.60;;
19030;SDS011;9648;51.130;13.978;2023-08-01T05:14:43;7.50;;;6.13;;
19030;SDS011;9648;51.130;13.978;2023-08-01T05:17:10;9.30;;;6.40;;
19030;SDS011;9648;51.130;13.978;2023-08-01T05:19:37;9.77;;;6.60;;
19030;SDS011;9648;51.130;13.978;2023-08-01T05:22:05;10.32;;;6.43;;
19030;SDS011;9648;51.130;13.978;2023-08-01T05:24:32;8.55;;;6.60;;
19030;SDS011;9648;51.130;13.978;2023-08-01T05:26:59;8.48;;;6.43;;
19030;SDS011;9648;51.130;13.978;2023-08-01T05:29:26;7.35;;;6.03;;
19030;SDS011;9648;51.130;13.978;2023-08-01T05:31:52;9.50;;;6.30;;
19030;SDS011;9648;51.130;13.978;2023-08-01T05:34:19;7.88;;;6.43;;
19030;SDS011;9648;51.130;13.978;2023-08-01T05:36:46;9.00;;;6.78;;
19030;SDS011;9648;51.130;13.978;2023-08-01T05:39:15;8.30;;;5.90;;
19030;SDS011;9648;51.130;13.978;2023-08-01T05:41:42;9.07;;;6.13;;
19030;SDS011;9648;51.130;13.978;2023-08-01T05:44:09;7.78;;;5.82;;
19030;SDS011;9648;51.130;13.978;2023-08-01T05:46:35;7.55;;;5.57;;
19030;SDS011;9648;51.130;13.978;2023-08-01T05:49:02;8.00;;;5.85;;
19030;SDS011;9648;51.130;13.978;2023-08-01T05:51:29;7.72;;;5.55;;
19030;SDS011;9648;51.130;13.978;2023-08-01T05:53:56;6.43;;;5.25;;
19030;SDS011;9648;51.130;13.978;2023-08-01T05:56:24;5.60;;;4.70;;
19030;SDS011;9648;51.130;13.978;2023-08-01T05:58:51;6.18;;;5.18;;
19030;SDS011;9648;51.130;13.978;2023-08-01T06:01:18;6.65;;;5.20;;
19030;SDS011;9648;51.130;13.978;2023-08-01T06:03:45;6.43;;;4.93;;
19030;SDS011;9648;51.130;13.978;2023-08-01T06:06:12;6.18;;;5.28;;
19030;SDS011;9648;51.130;13.978;2023-08-01T06:08:39;6.10;;;5.00;;
19030;SDS011;9648;51.130;13.978;2023-08-01T06:11:05;6.50;;;5.40;;
19030;SDS011;9648;51.130;13.978;2023-08-01T06:13:34;6.45;;;4.95;;
19030;SDS011;9648;51.130;13.978;2023-08-01T06:16:00;7.72;;;4.80;;
19030;SDS011;9648;51.130;13.978;2023-08-01T06:18:28;6.25;;;4.93;;
19030;SDS011;9648;51.130;13.978;2023-08-01T06:20:54;6.60;;;4.68;;
19030;SDS011;9648;51.130;13.978;2023-08-01T06:23:21;7.15;;;4.60;;
19030;SDS011;9648;51.130;13.978;2023-08-01T06:25:48;4.97;;;4.30;;
19030;SDS011;9648;51.130;13.978;2023-08-01T06:28:15;6.35;;;4.70;;
19030;SDS011;9648;51.130;13.978;2023-08-01T06:30:43;5.00;;;4.43;;
19030;SDS011;9648;51.130;13.978;2023-08-01T06:33:10;6.05;;;4.80;;
19030;SDS011;9648;51.130;13.978;2023-08-01T06:35:36;7.10;;;5.22;;
19030;SDS011;9648;51.130;13.978;2023-08-01T06:38:03;7.63;;;4.70;;
19030;SDS011;9648;51.130;13.978;2023-08-01T06:40:30;7.38;;;4.50;;
19030;SDS011;9648;51.130;13.978;2023-08-01T06:42:57;6.30;;;4.97;;
19030;SDS011;9648;51.130;13.978;2023-08-01T06:45:23;5.93;;;4.95;;
19030;SDS011;9648;51.130;13.978;2023-08-01T06:47:51;6.68;;;4.72;;
19030;SDS011;9648;51.130;13.978;2023-08-01T06:50:18;4.97;;;4.30;;
19030;SDS011;9648;51.130;13.978;2023-08-01T06:52:45;5.22;;;4.28;;
19030;SDS011;9648;51.130;13.978;2023-08-01T06:55:12;6.03;;;4.73;;
19030;SDS011;9648;51.130;13.978;2023-08-01T06:57:39;7.38;;;4.97;;
19030;SDS011;9648;51.130;13.978;2023-08-01T07:00:06;6.00;;;4.78;;
19030;SDS011;9648;51.130;13.978;2023-08-01T07:02:33;6.38;;;4.88;;
19030;SDS011;9648;51.130;13.978;2023-08-01T07:05:02;4.60;;;4.20;;
19030;SDS011;9648;51.130;13.978;2023-08-01T07:07:29;5.88;;;3.80;;
19030;SDS011;9648;51.130;13.978;2023-08-01T07:09:56;5.53;;;3.85;;
19030;SDS011;9648;51.130;13.978;2023-08-01T07:12:23;5.25;;;3.63;;
19030;SDS011;9648;51.130;13.978;2023-08-01T07:14:50;5.28;;;4.10;;
19030;SDS011;9648;51.130;13.978;2023-08-01T07:17:16;5.65;;;3.72;;
19030;SDS011;9648;51.130;13.978;2023-08-01T07:19:43;5.27;;;4.13;;
19030;SDS011;9648;51.130;13.978;2023-08-01T07:22:11;5.00;;;3.42;;
19030;SDS011;9648;51.130;13.978;2023-08-01T07:24:38;5.35;;;3.70;;
19030;SDS011;9648;51.130;13.978;2023-08-01T07:27:05;5.55;;;3.65;;
19030;SDS011;9648;51.130;13.978;2023-08-01T07:29:32;4.53;;;3.40;;
19030;SDS011;9648;51.130;13.978;2023-08-01T07:31:59;5.40;;;3.50;;
19030;SDS011;9648;51.130;13.978;2023-08-01T07:34:25;4.45;;;3.45;;
19030;SDS011;9648;51.130;13.978;2023-08-01T07:36:52;4.43;;;3.30;;
19030;SDS011;9648;51.130;13.978;2023-08-01T07:39:20;3.85;;;3.03;;
19030;SDS011;9648;51.130;13.978;2023-08-01T07:41:47;3.47;;;3.03;;
19030;SDS011;9648;51.130;13.978;2023-08-01T07:44:14;3.45;;;2.65;;
19030;SDS011;9648;51.130;13.978;2023-08-01T07:46:40;3.92;;;3.28;;
19030;SDS011;9648;51.130;13.978;2023-08-01T07:49:07;4.22;;;3.40;;
19030;SDS011;9648;51.130;13.978;2023-08-01T07:51:34;4.35;;;3.10;;
19030;SDS011;9648;51.130;13.978;2023-08-01T07:54:01;3.13;;;2.70;;
19030;SDS011;9648;51.130;13.978;2023-08-01T07:56:29;3.92;;;2.50;;
19030;SDS011;9648;51.130;13.978;2023-08-01T07:58:56;3.08;;;2.25;;
19030;SDS011;9648;51.130;13.978;2023-08-01T08:01:23;2.72;;;2.00;;
19030;SDS011;9648;51.130;13.978;2023-08-01T08:03:49;2.10;;;1.90;;
19030;SDS011;9648;51.130;13.978;2023-08-01T08:06:16;2.90;;;2.22;;
19030;SDS011;9648;51.130;13.978;2023-08-01T08:08:46;1.83;;;1.50;;
19030;SDS011;9648;51.130;13.978;2023-08-01T08:11:13;3.22;;;1.23;;
19030;SDS011;9648;51.130;13.978;2023-08-01T08:13:42;1.63;;;1.30;;
19030;SDS011;9648;51.130;13.978;2023-08-01T08:16:09;2.03;;;1.50;;
19030;SDS011;9648;51.130;13.978;2023-08-01T08:18:36;3.50;;;1.65;;
19030;SDS011;9648;51.130;13.978;2023-08-01T08:21:02;2.20;;;1.35;;
19030;SDS011;9648;51.130;13.978;2023-08-01T08:23:29;1.75;;;1.13;;
19030;SDS011;9648;51.130;13.978;2023-08-01T08:25:56;1.50;;;0.95;;
19030;SDS011;9648;51.130;13.978;2023-08-01T08:28:27;1.20;;;1.05;;
19030;SDS011;9648;51.130;13.978;2023-08-01T08:30:57;1.60;;;1.02;;
19030;SDS011;9648;51.130;13.978;2023-08-01T08:33:24;1.35;;;1.08;;
19030;SDS011;9648;51.130;13.978;2023-08-01T08:35:51;2.93;;;1.73;;
19030;SDS011;9648;51.130;13.978;2023-08-01T08:38:18;1.58;;;1.17;;
19030;SDS011;9648;51.130;13.978;2023-08-01T08:40:48;1.40;;;1.00;;
19030;SDS011;9648;51.130;13.978;2023-08-01T08:43:21;1.40;;;0.80;;
19030;SDS011;9648;51.130;13.978;2023-08-01T08:45:49;4.32;;;1.20;;
19030;SDS011;9648;51.130;13.978;2023-08-01T08:48:20;1.73;;;0.90;;
19030;SDS011;9648;51.130;13.978;2023-08-01T08:50:48;1.70;;;0.98;;
19030;SDS011;9648;51.130;13.978;2023-08-01T08:53:16;2.60;;;0.80;;
19030;SDS011;9648;51.130;13.978;2023-08-01T08:55:43;1.67;;;0.90;;
19030;SDS011;9648;51.130;13.978;2023-08-01T08:58:10;2.38;;;0.77;;
19030;SDS011;9648;51.130;13.978;2023-08-01T09:00:37;2.58;;;0.82;;
19030;SDS011;9648;51.130;13.978;2023-08-01T09:03:04;1.50;;;0.90;;
19030;SDS011;9648;51.130;13.978;2023-08-01T09:05:33;1.23;;;0.77;;
19030;SDS011;9648;51.130;13.978;2023-08-01T09:08:07;2.05;;;0.80;;
19030;SDS011;9648;51.130;13.978;2023-08-01T09:10:38;2.88;;;0.80;;
19030;SDS011;9648;51.130;13.978;2023-08-01T09:13:06;1.48;;;0.77;;
19030;SDS011;9648;51.130;13.978;2023-08-01T09:15:34;1.20;;;0.63;;
19030;SDS011;9648;51.130;13.978;2023-08-01T09:18:05;2.05;;;0.50;;
19030;SDS011;9648;51.130;13.978;2023-08-01T09:20:40;1.15;;;0.70;;
19030;SDS011;9648;51.130;13.978;2023-08-01T09:23:08;1.00;;;0.70;;
19030;SDS011;9648;51.130;13.978;2023-08-01T09:25:36;1.30;;;0.77;;
19030;SDS011;9648;51.130;13.978;2023-08-01T09:28:03;0.80;;;0.50;;
19030;SDS011;9648;51.130;13.978;2023-08-01T09:30:45;1.20;;;0.57;;
19030;SDS011;9648;51.130;13.978;2023-08-01T09:33:12;1.02;;;0.60;;
19030;SDS011;9648;51.130;13.978;2023-08-01T09:35:40;2.10;;;0.70;;
19030;SDS011;9648;51.130;13.978;2023-08-01T09:38:09;1.27;;;0.60;;
19030;SDS011;9648;51.130;13.978;2023-08-01T09:40:36;1.63;;;0.60;;
19030;SDS011;9648;51.130;13.978;2023-08-01T09:43:03;0.98;;;0.60;;
19030;SDS011;9648;51.130;13.978;2023-08-01T09:45:30;0.93;;;0.70;;
19030;SDS011;9648;51.130;13.978;2023-08-01T09:47:59;2.65;;;0.57;;
19030;SDS011;9648;51.130;13.978;2023-08-01T09:50:26;1.00;;;0.50;;
19030;SDS011;9648;51.130;13.978;2023-08-01T09:52:54;1.40;;;0.60;;
19030;SDS011;9648;51.130;13.978;2023-08-01T09:55:24;2.10;;;0.60;;
19030;SDS011;9648;51.130;13.978;2023-08-01T09:57:53;1.00;;;0.63;;
19030;SDS011;9648;51.130;13.978;2023-08-01T10:00:24;2.58;;;0.52;;
19030;SDS011;9648;51.130;13.978;2023-08-01T10:02:51;1.88;;;0.40;;
19030;SDS011;9648;51.130;13.978;2023-08-01T10:05:19;1.33;;;0.60;;
19030;SDS011;9648;51.130;13.978;2023-08-01T10:07:47;2.70;;;0.60;;
19030;SDS011;9648;51.130;13.978;2023-08-01T10:10:18;1.00;;;0.70;;
19030;SDS011;9648;51.130;13.978;2023-08-01T10:12:46;2.35;;;0.60;;
19030;SDS011;9648;51.130;13.978;2023-08-01T10:15:15;0.77;;;0.50;;
19030;SDS011;9648;51.130;13.978;2023-08-01T10:17:42;0.80;;;0.52;;
19030;SDS011;9648;51.130;13.978;2023-08-01T10:20:09;1.08;;;0.47;;
19030;SDS011;9648;51.130;13.978;2023-08-01T10:22:38;2.35;;;0.60;;
19030;SDS011;9648;51.130;13.978;2023-08-01T10:25:07;1.60;;;0.70;;
19030;SDS011;9648;51.130;13.978;2023-08-01T10:27:37;0.80;;;0.60;;
19030;SDS011;9648;51.130;13.978;2023-08-01T10:30:04;1.35;;;0.70;;
19030;SDS011;9648;51.130;13.978;2023-08-01T10:32:32;2.00;;;0.60;;
19030;SDS011;9648;51.130;13.978;2023-08-01T10:35:00;0.85;;;0.50;;
19030;SDS011;9648;51.130;13.978;2023-08-01T10:37:38;1.25;;;0.50;;
19030;SDS011;9648;51.130;13.978;2023-08-01T10:40:07;1.60;;;0.80;;
19030;SDS011;9648;51.130;13.978;2023-08-01T10:42:39;1.57;;;0.53;;
19030;SDS011;9648;51.130;13.978;2023-08-01T10:45:07;0.90;;;0.68;;
19030;SDS011;9648;51.130;13.978;2023-08-01T10:47:45;1.43;;;0.80;;
19030;SDS011;9648;51.130;13.978;2023-08-01T10:50:13;0.90;;;0.60;;
19030;SDS011;9648;51.130;13.978;2023-08-01T10:52:40;1.55;;;0.77;;
19030;SDS011;9648;51.130;13.978;2023-08-01T10:55:08;1.10;;;0.80;;
19030;SDS011;9648;51.130;13.978;2023-08-01T10:57:35;0.80;;;0.60;;
19030;SDS011;9648;51.130;13.978;2023-08-01T11:00:06;1.95;;;0.68;;
19030;SDS011;9648;51.130;13.978;2023-08-01T11:02:35;1.52;;;0.73;;
19030;SDS011;9648;51.130;13.978;2023-08-01T11:05:02;2.95;;;0.70;;
19030;SDS011;9648;51.130;13.978;2023-08-01T11:07:30;1.80;;;0.60;;
19030;SDS011;9648;51.130;13.978;2023-08-01T11:10:02;0.80;;;0.60;;
19030;SDS011;9648;51.130;13.978;2023-08-01T11:12:30;0.70;;;0.50;;
19030;SDS011;9648;51.130;13.978;2023-08-01T11:14:59;0.93;;;0.70;;
19030;SDS011;9648;51.130;13.978;2023-08-01T11:17:28;0.98;;;0.60;;
19030;SDS011;9648;51.130;13.978;2023-08-01T11:20:00;0.70;;;0.60;;
19030;SDS011;9648;51.130;13.978;2023-08-01T11:22:29;1.27;;;0.65;;
19030;SDS011;9648;51.130;13.978;2023-08-01T11:24:56;1.05;;;0.55;;
19030;SDS011;9648;51.130;13.978;2023-08-01T11:27:22;0.82;;;0.50;;
19030;SDS011;9648;51.130;13.978;2023-08-01T11:29:49;1.25;;;0.52;;
19030;SDS011;9648;51.130;13.978;2023-08-01T11:32:16;1.70;;;0.60;;
19030;SDS011;9648;51.130;13.978;2023-08-01T11:34:46;1.20;;;0.52;;
19030;SDS011;9648;51.130;13.978;2023-08-01T11:37:14;0.90;;;0.70;;
19030;SDS011;9648;51.130;13.978;2023-08-01T11:39:45;0.70;;;0.40;;
19030;SDS011;9648;51.130;13.978;2023-08-01T11:42:14;1.13;;;0.60;;
19030;SDS011;9648;51.130;13.978;2023-08-01T11:44:42;0.90;;;0.50;;
19030;SDS011;9648;51.130;13.978;2023-08-01T11:47:12;1.30;;;0.40;;
19030;SDS011;9648;51.130;13.978;2023-08-01T11:49:45;0.77;;;0.50;;
19030;SDS011;9648;51.130;13.978;2023-08-01T11:52:23;1.25;;;0.50;;
19030;SDS011;9648;51.130;13.978;2023-08-01T11:54:50;1.60;;;0.57;;
19030;SDS011;9648;51.130;13.978;2023-08-01T11:57:17;1.10;;;0.40;;
19030;SDS011;9648;51.130;13.978;2023-08-01T11:59:47;1.40;;;0.60;;
19030;SDS011;9648;51.130;13.978;2023-08-01T12:02:21;0.80;;;0.50;;
19030;SDS011;9648;51.130;13.978;2023-08-01T12:04:50;1.70;;;0.73;;
19030;SDS011;9648;51.130;13.978;2023-08-01T12:07:18;3.10;;;1.10;;
19030;SDS011;9648;51.130;13.978;2023-08-01T12:09:54;0.95;;;0.70;;
19030;SDS011;9648;51.130;13.978;2023-08-01T12:12:22;1.25;;;0.70;;
19030;SDS011;9648;51.130;13.978;2023-08-01T12:14:49;1.98;;;0.70;;
19030;SDS011;9648;51.130;13.978;2023-08-01T12:17:16;1.83;;;0.57;;
19030;SDS011;9648;51.130;13.978;2023-08-01T12:19:42;1.60;;;1.00;;
19030;SDS011;9648;51.130;13.978;2023-08-01T12:22:11;1.05;;;0.80;;
19030;SDS011;9648;51.130;13.978;2023-08-01T12:24:38;1.20;;;0.70;;
19030;SDS011;9648;51.130;13.978;2023-08-01T12:27:05;1.35;;;0.77;;
19030;SDS011;9648;51.130;13.978;2023-08-01T12:29:33;1.23;;;0.90;;
19030;SDS011;9648;51.130;13.978;2023-08-01T12:32:01;1.40;;;0.88;;
19030;SDS011;9648;51.130;13.978;2023-08-01T12:34:28;1.90;;;1.00;;
19030;SDS011;9648;51.130;13.978;2023-08-01T12:36:54;1.58;;;0.88;;
19030;SDS011;9648;51.130;13.978;2023-08-01T12:39:22;2.80;;;0.68;;
19030;SDS011;9648;51.130;13.978;2023-08-01T12:41:51;1.33;;;0.52;;
19030;SDS011;9648;51.130;13.978;2023-08-01T12:44:18;1.20;;;0.70;;
19030;SDS011;9648;51.130;13.978;2023-08-01T12:46:45;1.30;;;0.70;;
19030;SDS011;9648;51.130;13.978;2023-08-01T12:49:11;1.17;;;0.60;;
19030;SDS011;9648;51.130;13.978;2023-08-01T12:51:38;2.00;;;0.80;;
19030;SDS011;9648;51.130;13.978;2023-08-01T12:54:05;1.92;;;0.73;;
19030;SDS011;9648;51.130;13.978;2023-08-01T12:56:33;1.17;;;0.60;;
19030;SDS011;9648;51.130;13.978;2023-08-01T12:59:00;1.30;;;0.60;;
19030;SDS011;9648;51.130;13.978;2023-08-01T13:01:26;1.17;;;0.77;;
19030;SDS011;9648;51.130;13.978;2023-08-01T13:03:53;1.42;;;0.85;;
19030;SDS011;9648;51.130;13.978;2023-08-01T13:06:20;1.42;;;0.70;;
19030;SDS011;9648;51.130;13.978;2023-08-01T13:08:47;1.35;;;0.68;;
19030;SDS011;9648;51.130;13.978;2023-08-01T13:11:13;1.17;;;0.70;;
19030;SDS011;9648;51.130;13.978;2023-08-01T13:13:42;1.83;;;0.77;;
19030;SDS011;9648;51.130;13.978;2023-08-01T13:16:09;1.15;;;0.75;;
19030;SDS011;9648;51.130;13.978;2023-08-01T13:18:36;1.88;;;0.80;;
19030;SDS011;9648;51.130;13.978;2023-08-01T13:21:08;1.75;;;0.60;;
19030;SDS011;9648;51.130;13.978;2023-08-01T13:23:35;3.60;;;0.82;;
19030;SDS011;9648;51.130;13.978;2023-08-01T13:26:02;2.75;;;0.80;;
19030;SDS011;9648;51.130;13.978;2023-08-01T13:28:29;1.63;;;0.75;;
19030;SDS011;9648;51.130;13.978;2023-08-01T13:30:57;2.30;;;1.10;;
19030;SDS011;9648;51.130;13.978;2023-08-01T13:33:23;2.75;;;0.70;;
19030;SDS011;9648;51.130;13.978;2023-08-01T13:35:51;1.40;;;0.70;;
19030;SDS011;9648;51.130;13.978;2023-08-01T13:38:18;2.63;;;0.80;;
19030;SDS011;9648;51.130;13.978;2023-08-01T13:40:45;1.52;;;0.70;;
19030;SDS011;9648;51.130;13.978;2023-08-01T13:43:12;1.03;;;0.80;;
19030;SDS011;9648;51.130;13.978;2023-08-01T13:45:39;1.92;;;0.80;;
19030;SDS011;9648;51.130;13.978;2023-08-01T13:48:07;1.88;;;0.80;;
19030;SDS011;9648;51.130;13.978;2023-08-01T13:50:34;1.55;;;1.00;;
19030;SDS011;9648;51.130;13.978;2023-08-01T13:53:01;2.70;;;0.90;;
19030;SDS011;9648;51.130;13.978;2023-08-01T13:55:27;1.67;;;0.80;;
19030;SDS011;9648;51.130;13.978;2023-08-01T13:57:54;1.38;;;0.80;;
19030;SDS011;9648;51.130;13.978;2023-08-01T14:00:21;2.17;;;1.00;;
19030;SDS011;9648;51.130;13.978;2023-08-01T14:02:49;2.70;;;1.10;;
19030;SDS011;9648;51.130;13.978;2023-08-01T14:05:17;3.13;;;0.87;;
19030;SDS011;9648;51.130;13.978;2023-08-01T14:07:44;1.90;;;1.17;;
19030;SDS011;9648;51.130;13.978;2023-08-01T14:10:11;3.75;;;1.10;;
19030;SDS011;9648;51.130;13.978;2023-08-01T14:12:39;2.03;;;1.20;;
19030;SDS011;9648;51.130;13.978;2023-08-01T14:15:06;1.63;;;1.40;;
19030;SDS011;9648;51.130;13.978;2023-08-01T14:17:34;1.92;;;1.23;;
19030;SDS011;9648;51.130;13.978;2023-08-01T14:20:00;2.30;;;1.50;;
19030;SDS011;9648;51.130;13.978;2023-08-01T14:22:30;2.55;;;1.30;;
19030;SDS011;9648;51.130;13.978;2023-08-01T14:24:59;2.35;;;1.23;;
19030;SDS011;9648;51.130;13.978;2023-08-01T14:27:26;3.63;;;1.58;;
19030;SDS011;9648;51.130;13.978;2023-08-01T14:29:53;2.00;;;1.50;;
19030;SDS011;9648;51.130;13.978;2023-08-01T14:32:19;2.20;;;1.60;;
19030;SDS011;9648;51.130;13.978;2023-08-01T14:34:46;1.95;;;1.50;;
19030;SDS011;9648;51.130;13.978;2023-08-01T14:37:13;1.88;;;1.48;;
19030;SDS011;9648;51.130;13.978;2023-08-01T14:39:41;2.03;;;1.52;;
19030;SDS011;9648;51.130;13.978;2023-08-01T14:42:08;3.65;;;1.73;;
19030;SDS011;9648;51.130;13.978;2023-08-01T14:44:35;1.83;;;1.42;;
19030;SDS011;9648;51.130;13.978;2023-08-01T14:47:02;2.03;;;1.40;;
19030;SDS011;9648;51.130;13.978;2023-08-01T14:49:28;2.08;;;1.55;;